sensor_id;sensor_type;location;lat;lon;timestamp;temperature;humidity
7034;DHT22;3558;53.176;10.412;2024-02-26T03:46:58;7.50;68.70
7034;DHT22;3558;53.176;10.412;2024-02-26T03:49:24;7.50;68.80
7034;DHT22;3558;53.176;10.412;2024-02-26T03:51:50;7.50;68.70
7034;DHT22;3558;53.176;10.412;2024-02-26T03:54:15;7.50;68.70
7034;DHT22;3558;53.176;10.412;2024-02-26T03:56:40;7.40;68.70
7034;DHT22;3558;53.176;10.412;2024-02-26T03:59:06;7.40;68.70
7034;DHT22;3558;53.176;10.412;2024-02-26T04:01:31;7.40;68.60
7034;DHT22;3558;53.176;10.412;2024-02-26T04:03:57;7.30;68.60
7034;DHT22;3558;53.176;10.412;2024-02-26T04:06:22;7.30;68.60
7034;DHT22;3558;53.176;10.412;2024-02-26T04:08:48;7.30;68.60
7034;DHT22;3558;53.176;10.412;2024-02-26T04:11:14;7.30;68.60
7034;DHT22;3558;53.176;10.412;2024-02-26T04:13:46;7.30;68.60
7034;DHT22;3558;53.176;10.412;2024-02-26T04:16:15;7.30;68.60
7034;DHT22;3558;53.176;10.412;2024-02-26T04:18:40;7.20;68.50
7034;DHT22;3558;53.176;10.412;2024-02-26T04:21:06;7.20;68.50
7034;DHT22;3558;53.176;10.412;2024-02-26T04:23:32;7.20;68.50
7034;DHT22;3558;53.176;10.412;2024-02-26T04:25:58;7.20;68.50
7034;DHT22;3558;53.176;10.412;2024-02-26T04:28:24;7.20;68.50
7034;DHT22;3558;53.176;10.412;2024-02-26T04:30:54;7.10;68.50
7034;DHT22;3558;53.176;10.412;2024-02-26T04:33:20;7.10;68.50
7034;DHT22;3558;53.176;10.412;2024-02-26T04:35:45;7.10;68.50
7034;DHT22;3558;53.176;10.412;2024-02-26T04:38:11;7.10;69.10
7034;DHT22;3558;53.176;10.412;2024-02-26T04:40:36;7.10;68.50
7034;DHT22;3558;53.176;10.412;2024-02-26T04:43:02;7.10;68.50
7034;DHT22;3558;53.176;10.412;2024-02-26T04:45:27;7.00;68.50
7034;DHT22;3558;53.176;10.412;2024-02-26T04:47:54;7.00;68.50
7034;DHT22;3558;53.176;10.412;2024-02-26T04:50:19;7.00;68.50
7034;DHT22;3558;53.176;10.412;2024-02-26T04:52:45;7.00;68.50
7034;DHT22;3558;53.176;10.412;2024-02-26T04:55:10;6.90;68.50
7034;DHT22;3558;53.176;10.412;2024-02-26T04:57:36;6.90;68.50
7034;DHT22;3558;53.176;10.412;2024-02-26T05:00:02;6.90;68.50
7034;DHT22;3558;53.176;10.412;2024-02-26T05:02:28;6.90;68.50
7034;DHT22;3558;53.176;10.412;2024-02-26T05:04:55;6.90;68.50
7034;DHT22;3558;53.176;10.412;2024-02-26T05:07:21;6.90;68.50
7034;DHT22;3558;53.176;10.412;2024-02-26T05:09:46;6.90;68.50
7034;DHT22;3558;53.176;10.412;2024-02-26T05:12:14;6.90;68.50
7034;DHT22;3558;53.176;10.412;2024-02-26T05:14:40;6.80;68.40
7034;DHT22;3558;53.176;10.412;2024-02-26T05:17:05;6.80;68.50
7034;DHT22;3558;53.176;10.412;2024-02-26T05:19:31;6.80;68.50
7034;DHT22;3558;53.176;10.412;2024-02-26T05:21:56;6.70;68.50
7034;DHT22;3558;53.176;10.412;2024-02-26T05:24:22;6.70;68.50
7034;DHT22;3558;53.176;10.412;2024-02-26T05:26:48;6.70;68.50
7034;DHT22;3558;53.176;10.412;2024-02-26T05:29:13;6.70;68.60
7034;DHT22;3558;53.176;10.412;2024-02-26T05:31:39;6.70;68.60
7034;DHT22;3558;53.176;10.412;2024-02-26T05:34:07;6.70;68.60
7034;DHT22;3558;53.176;10.412;2024-02-26T05:36:32;6.70;68.70
7034;DHT22;3558;53.176;10.412;2024-02-26T05:38:59;6.70;68.70
7034;DHT22;3558;53.176;10.412;2024-02-26T05:41:25;6.70;68.70
7034;DHT22;3558;53.176;10.412;2024-02-26T05:43:52;6.70;68.70
7034;DHT22;3558;53.176;10.412;2024-02-26T05:46:18;6.60;68.70
7034;DHT22;3558;53.176;10.412;2024-02-26T05:48:48;6.60;68.70
7034;DHT22;3558;53.176;10.412;2024-02-26T05:51:14;6.60;68.80
7034;DHT22;3558;53.176;10.412;2024-02-26T05:53:40;6.60;68.80
7034;DHT22;3558;53.176;10.412;2024-02-26T05:56:06;6.60;68.80
7034;DHT22;3558;53.176;10.412;2024-02-26T05:58:31;6.60;68.90
7034;DHT22;3558;53.176;10.412;2024-02-26T06:00:57;6.60;68.90
7034;DHT22;3558;53.176;10.412;2024-02-26T06:03:22;6.50;68.90
7034;DHT22;3558;53.176;10.412;2024-02-26T06:05:48;6.60;68.90
7034;DHT22;3558;53.176;10.412;2024-02-26T06:08:13;6.60;68.90
7034;DHT22;3558;53.176;10.412;2024-02-26T06:10:39;6.50;68.90
7034;DHT22;3558;53.176;10.412;2024-02-26T06:13:05;6.50;68.90
7034;DHT22;3558;53.176;10.412;2024-02-26T06:15:30;6.50;68.90
7034;DHT22;3558;53.176;10.412;2024-02-26T06:17:56;6.50;68.90
7034;DHT22;3558;53.176;10.412;2024-02-26T06:20:21;6.50;68.90
7034;DHT22;3558;53.176;10.412;2024-02-26T06:22:47;6.50;69.00
7034;DHT22;3558;53.176;10.412;2024-02-26T06:25:12;6.50;69.00
7034;DHT22;3558;53.176;10.412;2024-02-26T06:27:38;6.50;69.00
7034;DHT22;3558;53.176;10.412;2024-02-26T06:30:04;6.50;69.00
7034;DHT22;3558;53.176;10.412;2024-02-26T06:32:29;6.50;69.00
7034;DHT22;3558;53.176;10.412;2024-02-26T06:34:55;6.50;69.10
7034;DHT22;3558;53.176;10.412;2024-02-26T06:37:21;6.50;69.10
7034;DHT22;3558;53.176;10.412;2024-02-26T06:39:47;6.50;69.10
7034;DHT22;3558;53.176;10.412;2024-02-26T06:42:12;6.50;69.10
7034;DHT22;3558;53.176;10.412;2024-02-26T06:44:38;6.50;69.20
7034;DHT22;3558;53.176;10.412;2024-02-26T06:47:04;6.40;69.10
7034;DHT22;3558;53.176;10.412;2024-02-26T06:49:29;6.40;69.20
7034;DHT22;3558;53.176;10.412;2024-02-26T06:51:55;6.40;69.20
7034;DHT22;3558;53.176;10.412;2024-02-26T06:54:21;6.40;69.20
7034;DHT22;3558;53.176;10.412;2024-02-26T06:56:46;6.40;69.30
7034;DHT22;3558;53.176;10.412;2024-02-26T06:59:12;6.40;69.30
7034;DHT22;3558;53.176;10.412;2024-02-26T07:01:41;6.40;69.30
7034;DHT22;3558;53.176;10.412;2024-02-26T07:04:07;6.40;69.30
7034;DHT22;3558;53.176;10.412;2024-02-26T07:06:32;6.40;69.40
7034;DHT22;3558;53.176;10.412;2024-02-26T07:08:57;6.40;69.40
7034;DHT22;3558;53.176;10.412;2024-02-26T07:11:23;6.40;69.40
7034;DHT22;3558;53.176;10.412;2024-02-26T07:13:48;6.40;69.50
7034;DHT22;3558;53.176;10.412;2024-02-26T07:16:15;6.40;69.50
7034;DHT22;3558;53.176;10.412;2024-02-26T07:18:40;6.40;69.50
7034;DHT22;3558;53.176;10.412;2024-02-26T07:21:06;6.40;69.60
7034;DHT22;3558;53.176;10.412;2024-02-26T07:23:31;6.40;69.60
7034;DHT22;3558;53.176;10.412;2024-02-26T07:25:57;6.50;69.70
7034;DHT22;3558;53.176;10.412;2024-02-26T07:28:23;6.50;69.80
7034;DHT22;3558;53.176;10.412;2024-02-26T07:30:49;6.40;69.70
7034;DHT22;3558;53.176;10.412;2024-02-26T07:33:14;6.50;69.80
7034;DHT22;3558;53.176;10.412;2024-02-26T07:35:40;6.50;69.90
7034;DHT22;3558;53.176;10.412;2024-02-26T07:38:05;6.50;69.90
7034;DHT22;3558;53.176;10.412;2024-02-26T07:40:31;6.50;70.10
7034;DHT22;3558;53.176;10.412;2024-02-26T07:42:57;6.50;70.10
7034;DHT22;3558;53.176;10.412;2024-02-26T07:45:22;6.50;70.10
7034;DHT22;3558;53.176;10.412;2024-02-26T07:47:48;6.50;70.20
7034;DHT22;3558;53.176;10.412;2024-02-26T07:50:14;6.50;70.30
7034;DHT22;3558;53.176;10.412;2024-02-26T07:52:39;6.60;70.40
7034;DHT22;3558;53.176;10.412;2024-02-26T07:55:05;6.60;70.40
7034;DHT22;3558;53.176;10.412;2024-02-26T07:57:32;6.60;70.50
7034;DHT22;3558;53.176;10.412;2024-02-26T07:59:59;6.60;70.50
7034;DHT22;3558;53.176;10.412;2024-02-26T08:02:24;6.60;70.60
7034;DHT22;3558;53.176;10.412;2024-02-26T08:04:50;6.60;70.50
7034;DHT22;3558;53.176;10.412;2024-02-26T08:07:16;6.60;70.60
7034;DHT22;3558;53.176;10.412;2024-02-26T08:09:41;6.70;70.70
7034;DHT22;3558;53.176;10.412;2024-02-26T08:12:07;6.70;70.70
7034;DHT22;3558;53.176;10.412;2024-02-26T08:14:33;6.70;70.80
7034;DHT22;3558;53.176;10.412;2024-02-26T08:16:58;6.70;70.80
7034;DHT22;3558;53.176;10.412;2024-02-26T08:19:24;6.70;70.80
7034;DHT22;3558;53.176;10.412;2024-02-26T08:21:50;6.70;70.90
7034;DHT22;3558;53.176;10.412;2024-02-26T08:24:16;6.80;71.00
7034;DHT22;3558;53.176;10.412;2024-02-26T08:26:42;6.80;71.10
7034;DHT22;3558;53.176;10.412;2024-02-26T08:29:07;6.80;71.10
7034;DHT22;3558;53.176;10.412;2024-02-26T08:31:32;6.80;71.10
7034;DHT22;3558;53.176;10.412;2024-02-26T08:33:58;6.90;71.20
7034;DHT22;3558;53.176;10.412;2024-02-26T08:36:25;6.90;71.30
7034;DHT22;3558;53.176;10.412;2024-02-26T08:38:51;6.90;71.30
7034;DHT22;3558;53.176;10.412;2024-02-26T08:41:16;6.90;71.40
7034;DHT22;3558;53.176;10.412;2024-02-26T08:43:42;7.00;71.40
7034;DHT22;3558;53.176;10.412;2024-02-26T08:46:12;7.00;71.50
7034;DHT22;3558;53.176;10.412;2024-02-26T08:48:38;7.00;71.60
7034;DHT22;3558;53.176;10.412;2024-02-26T08:51:08;7.00;71.60
7034;DHT22;3558;53.176;10.412;2024-02-26T08:53:35;7.10;71.70
7034;DHT22;3558;53.176;10.412;2024-02-26T08:56:00;7.10;71.70
7034;DHT22;3558;53.176;10.412;2024-02-26T08:58:27;7.10;71.80
7034;DHT22;3558;53.176;10.412;2024-02-26T09:00:53;7.20;71.90
7034;DHT22;3558;53.176;10.412;2024-02-26T09:03:18;7.20;71.80
7034;DHT22;3558;53.176;10.412;2024-02-26T09:05:44;7.20;71.90
7034;DHT22;3558;53.176;10.412;2024-02-26T09:08:09;7.30;71.90
7034;DHT22;3558;53.176;10.412;2024-02-26T09:10:35;7.30;72.00
7034;DHT22;3558;53.176;10.412;2024-02-26T09:13:00;7.30;72.10
7034;DHT22;3558;53.176;10.412;2024-02-26T09:15:26;7.30;72.10
7034;DHT22;3558;53.176;10.412;2024-02-26T09:17:51;7.40;72.20
7034;DHT22;3558;53.176;10.412;2024-02-26T09:20:17;7.40;72.20
7034;DHT22;3558;53.176;10.412;2024-02-26T09:22:46;7.40;72.20
7034;DHT22;3558;53.176;10.412;2024-02-26T09:25:12;7.50;72.30
7034;DHT22;3558;53.176;10.412;2024-02-26T09:27:38;7.50;72.30
7034;DHT22;3558;53.176;10.412;2024-02-26T09:30:04;7.60;72.40
7034;DHT22;3558;53.176;10.412;2024-02-26T09:32:30;7.50;72.30
7034;DHT22;3558;53.176;10.412;2024-02-26T09:34:56;7.60;72.30
7034;DHT22;3558;53.176;10.412;2024-02-26T09:37:21;7.70;72.40
7034;DHT22;3558;53.176;10.412;2024-02-26T09:39:47;7.70;72.40
7034;DHT22;3558;53.176;10.412;2024-02-26T09:42:13;7.70;72.50
7034;DHT22;3558;53.176;10.412;2024-02-26T09:44:40;7.70;72.50
7034;DHT22;3558;53.176;10.412;2024-02-26T09:47:09;7.80;72.70
7034;DHT22;3558;53.176;10.412;2024-02-26T09:49:36;7.80;72.70
7034;DHT22;3558;53.176;10.412;2024-02-26T09:52:03;7.80;72.60
7034;DHT22;3558;53.176;10.412;2024-02-26T09:54:29;7.90;72.60
7034;DHT22;3558;53.176;10.412;2024-02-26T09:56:59;7.90;72.50
7034;DHT22;3558;53.176;10.412;2024-02-26T09:59:26;8.00;72.60
7034;DHT22;3558;53.176;10.412;2024-02-26T10:01:53;8.00;72.60
7034;DHT22;3558;53.176;10.412;2024-02-26T10:04:19;8.00;72.50
7034;DHT22;3558;53.176;10.412;2024-02-26T10:06:46;8.00;72.50
7034;DHT22;3558;53.176;10.412;2024-02-26T10:09:12;8.10;72.60
7034;DHT22;3558;53.176;10.412;2024-02-26T10:11:38;8.20;72.70
7034;DHT22;3558;53.176;10.412;2024-02-26T10:14:05;8.20;72.80
7034;DHT22;3558;53.176;10.412;2024-02-26T10:16:32;8.20;72.70
7034;DHT22;3558;53.176;10.412;2024-02-26T10:18:58;8.20;72.70
7034;DHT22;3558;53.176;10.412;2024-02-26T10:21:24;8.30;72.80
7034;DHT22;3558;53.176;10.412;2024-02-26T10:23:49;8.30;72.70
7034;DHT22;3558;53.176;10.412;2024-02-26T10:26:18;8.40;72.70
7034;DHT22;3558;53.176;10.412;2024-02-26T10:28:45;8.40;72.70
7034;DHT22;3558;53.176;10.412;2024-02-26T10:31:11;8.50;72.70
7034;DHT22;3558;53.176;10.412;2024-02-26T10:33:39;8.50;72.70
7034;DHT22;3558;53.176;10.412;2024-02-26T10:36:05;8.60;72.70
7034;DHT22;3558;53.176;10.412;2024-02-26T10:38:32;8.60;73.20
7034;DHT22;3558;53.176;10.412;2024-02-26T10:40:58;8.70;72.70
7034;DHT22;3558;53.176;10.412;2024-02-26T10:43:25;8.70;72.60
7034;DHT22;3558;53.176;10.412;2024-02-26T10:45:50;8.80;72.60
7034;DHT22;3558;53.176;10.412;2024-02-26T10:48:16;8.80;72.70
7034;DHT22;3558;53.176;10.412;2024-02-26T10:50:43;8.90;72.70
7034;DHT22;3558;53.176;10.412;2024-02-26T10:53:13;9.00;72.70
7034;DHT22;3558;53.176;10.412;2024-02-26T10:55:43;9.00;72.60
7034;DHT22;3558;53.176;10.412;2024-02-26T10:58:12;9.10;72.50
7034;DHT22;3558;53.176;10.412;2024-02-26T11:00:39;9.20;72.50
7034;DHT22;3558;53.176;10.412;2024-02-26T11:03:06;9.20;72.50
7034;DHT22;3558;53.176;10.412;2024-02-26T11:05:33;9.30;72.40
7034;DHT22;3558;53.176;10.412;2024-02-26T11:08:00;9.40;72.40
7034;DHT22;3558;53.176;10.412;2024-02-26T11:10:27;9.50;72.40
7034;DHT22;3558;53.176;10.412;2024-02-26T11:12:56;9.60;72.60
7034;DHT22;3558;53.176;10.412;2024-02-26T11:15:23;9.70;72.70
7034;DHT22;3558;53.176;10.412;2024-02-26T11:17:52;9.70;73.20
7034;DHT22;3558;53.176;10.412;2024-02-26T11:20:19;9.80;73.20
7034;DHT22;3558;53.176;10.412;2024-02-26T11:22:45;9.90;73.50
7034;DHT22;3558;53.176;10.412;2024-02-26T11:25:11;10.00;73.80
7034;DHT22;3558;53.176;10.412;2024-02-26T11:27:54;10.10;74.20
7034;DHT22;3558;53.176;10.412;2024-02-26T11:30:21;10.20;74.60
7034;DHT22;3558;53.176;10.412;2024-02-26T11:32:47;10.20;74.80
7034;DHT22;3558;53.176;10.412;2024-02-26T11:35:14;10.30;75.20
7034;DHT22;3558;53.176;10.412;2024-02-26T11:37:51;10.40;75.60
7034;DHT22;3558;53.176;10.412;2024-02-26T11:40:18;10.50;76.10
7034;DHT22;3558;53.176;10.412;2024-02-26T11:42:44;10.50;76.70
7034;DHT22;3558;53.176;10.412;2024-02-26T11:48:04;10.70;77.60
7034;DHT22;3558;53.176;10.412;2024-02-26T11:50:40;10.80;78.00
7034;DHT22;3558;53.176;10.412;2024-02-26T11:55:45;10.90;78.50
7034;DHT22;3558;53.176;10.412;2024-02-26T11:58:10;11.00;78.40
7034;DHT22;3558;53.176;10.412;2024-02-26T12:00:36;11.10;78.10
7034;DHT22;3558;53.176;10.412;2024-02-26T12:03:02;11.20;78.50
7034;DHT22;3558;53.176;10.412;2024-02-26T12:05:32;11.30;78.80
7034;DHT22;3558;53.176;10.412;2024-02-26T12:08:03;11.30;79.10
7034;DHT22;3558;53.176;10.412;2024-02-26T12:10:35;11.40;79.50
7034;DHT22;3558;53.176;10.412;2024-02-26T12:13:13;11.50;79.80
7034;DHT22;3558;53.176;10.412;2024-02-26T12:15:47;11.60;80.20
7034;DHT22;3558;53.176;10.412;2024-02-26T12:18:20;11.60;80.30
7034;DHT22;3558;53.176;10.412;2024-02-26T12:20:46;11.70;80.40
7034;DHT22;3558;53.176;10.412;2024-02-26T12:23:16;11.70;80.30
7034;DHT22;3558;53.176;10.412;2024-02-26T12:25:43;11.70;80.30
7034;DHT22;3558;53.176;10.412;2024-02-26T12:28:09;11.80;80.30
7034;DHT22;3558;53.176;10.412;2024-02-26T12:30:35;11.90;80.10
7034;DHT22;3558;53.176;10.412;2024-02-26T12:33:00;11.90;78.00
7034;DHT22;3558;53.176;10.412;2024-02-26T12:35:29;12.00;77.90
7034;DHT22;3558;53.176;10.412;2024-02-26T12:37:58;12.00;77.80
7034;DHT22;3558;53.176;10.412;2024-02-26T12:40:23;12.10;78.40
7034;DHT22;3558;53.176;10.412;2024-02-26T12:42:49;12.10;78.80
7034;DHT22;3558;53.176;10.412;2024-02-26T12:45:15;12.20;79.20
7034;DHT22;3558;53.176;10.412;2024-02-26T12:47:45;12.20;79.50
7034;DHT22;3558;53.176;10.412;2024-02-26T12:50:11;12.30;79.90
7034;DHT22;3558;53.176;10.412;2024-02-26T12:52:41;12.40;79.90
7034;DHT22;3558;53.176;10.412;2024-02-26T12:55:07;12.40;79.50
7034;DHT22;3558;53.176;10.412;2024-02-26T12:57:36;12.50;79.00
7034;DHT22;3558;53.176;10.412;2024-02-26T13:00:02;12.50;78.20
7034;DHT22;3558;53.176;10.412;2024-02-26T13:02:30;12.50;78.20
7034;DHT22;3558;53.176;10.412;2024-02-26T13:04:56;12.50;78.10
7034;DHT22;3558;53.176;10.412;2024-02-26T13:07:22;12.60;78.00
7034;DHT22;3558;53.176;10.412;2024-02-26T13:09:48;12.60;77.80
7034;DHT22;3558;53.176;10.412;2024-02-26T13:12:13;12.70;77.80
7034;DHT22;3558;53.176;10.412;2024-02-26T13:14:40;12.70;77.90
7034;DHT22;3558;53.176;10.412;2024-02-26T13:17:05;12.70;77.90
7034;DHT22;3558;53.176;10.412;2024-02-26T13:19:31;12.80;77.70
7034;DHT22;3558;53.176;10.412;2024-02-26T13:22:04;12.80;77.50
7034;DHT22;3558;53.176;10.412;2024-02-26T13:24:29;12.90;77.90
7034;DHT22;3558;53.176;10.412;2024-02-26T13:26:56;12.90;78.00
7034;DHT22;3558;53.176;10.412;2024-02-26T13:29:22;13.00;78.00
7034;DHT22;3558;53.176;10.412;2024-02-26T13:31:48;13.00;78.30
7034;DHT22;3558;53.176;10.412;2024-02-26T13:34:25;13.10;78.50
7034;DHT22;3558;53.176;10.412;2024-02-26T13:36:52;13.10;78.50
7034;DHT22;3558;53.176;10.412;2024-02-26T13:39:25;13.20;78.60
7034;DHT22;3558;53.176;10.412;2024-02-26T13:41:51;13.20;78.60
7034;DHT22;3558;53.176;10.412;2024-02-26T13:44:17;13.30;78.70
7034;DHT22;3558;53.176;10.412;2024-02-26T13:46:43;13.30;79.10
7034;DHT22;3558;53.176;10.412;2024-02-26T13:49:09;13.40;79.50
7034;DHT22;3558;53.176;10.412;2024-02-26T13:51:36;13.40;79.30
7034;DHT22;3558;53.176;10.412;2024-02-26T13:54:02;13.40;79.10
7034;DHT22;3558;53.176;10.412;2024-02-26T13:56:28;13.50;79.60
7034;DHT22;3558;53.176;10.412;2024-02-26T13:58:54;13.50;79.90
7034;DHT22;3558;53.176;10.412;2024-02-26T14:01:20;13.50;80.00
7034;DHT22;3558;53.176;10.412;2024-02-26T14:03:45;13.60;80.30
7034;DHT22;3558;53.176;10.412;2024-02-26T14:06:11;13.60;79.90
7034;DHT22;3558;53.176;10.412;2024-02-26T14:08:36;13.70;80.10
7034;DHT22;3558;53.176;10.412;2024-02-26T14:11:02;13.70;79.80
7034;DHT22;3558;53.176;10.412;2024-02-26T14:13:27;13.70;80.20
7034;DHT22;3558;53.176;10.412;2024-02-26T14:15:53;13.70;79.60
7034;DHT22;3558;53.176;10.412;2024-02-26T14:18:19;13.80;79.60
7034;DHT22;3558;53.176;10.412;2024-02-26T14:20:44;13.80;80.00
7034;DHT22;3558;53.176;10.412;2024-02-26T14:23:10;13.80;80.40
7034;DHT22;3558;53.176;10.412;2024-02-26T14:25:36;13.80;80.60
7034;DHT22;3558;53.176;10.412;2024-02-26T14:28:02;13.80;80.20
7034;DHT22;3558;53.176;10.412;2024-02-26T14:30:27;13.90;80.40
7034;DHT22;3558;53.176;10.412;2024-02-26T14:32:53;13.90;80.40
7034;DHT22;3558;53.176;10.412;2024-02-26T14:35:19;13.90;80.40
7034;DHT22;3558;53.176;10.412;2024-02-26T14:37:45;13.90;80.90
7034;DHT22;3558;53.176;10.412;2024-02-26T14:40:14;13.90;80.50
7034;DHT22;3558;53.176;10.412;2024-02-26T14:42:40;13.90;80.60
7034;DHT22;3558;53.176;10.412;2024-02-26T14:45:06;14.00;80.70
7034;DHT22;3558;53.176;10.412;2024-02-26T14:47:35;14.00;80.50
7034;DHT22;3558;53.176;10.412;2024-02-26T14:50:01;14.00;80.50
7034;DHT22;3558;53.176;10.412;2024-02-26T14:52:26;14.00;80.30
7034;DHT22;3558;53.176;10.412;2024-02-26T14:54:52;14.00;80.30
7034;DHT22;3558;53.176;10.412;2024-02-26T14:57:18;14.00;80.20
7034;DHT22;3558;53.176;10.412;2024-02-26T14:59:44;14.00;80.00
7034;DHT22;3558;53.176;10.412;2024-02-26T15:02:09;14.00;79.80
7034;DHT22;3558;53.176;10.412;2024-02-26T15:04:36;14.10;79.50
7034;DHT22;3558;53.176;10.412;2024-02-26T15:07:01;14.00;79.50
7034;DHT22;3558;53.176;10.412;2024-02-26T15:09:27;14.00;79.50
7034;DHT22;3558;53.176;10.412;2024-02-26T15:11:52;14.00;79.50
7034;DHT22;3558;53.176;10.412;2024-02-26T15:14:17;14.00;79.10
7034;DHT22;3558;53.176;10.412;2024-02-26T15:16:43;14.10;78.90
7034;DHT22;3558;53.176;10.412;2024-02-26T15:19:09;14.00;78.60
7034;DHT22;3558;53.176;10.412;2024-02-26T15:21:34;14.00;78.30
7034;DHT22;3558;53.176;10.412;2024-02-26T15:24:00;14.10;78.30
7034;DHT22;3558;53.176;10.412;2024-02-26T15:26:25;14.00;77.90
7034;DHT22;3558;53.176;10.412;2024-02-26T15:28:52;14.00;77.70
7034;DHT22;3558;53.176;10.412;2024-02-26T15:31:19;14.00;77.60
7034;DHT22;3558;53.176;10.412;2024-02-26T15:33:44;14.00;77.50
7034;DHT22;3558;53.176;10.412;2024-02-26T15:36:10;14.00;77.40
7034;DHT22;3558;53.176;10.412;2024-02-26T15:38:36;14.10;77.30
7034;DHT22;3558;53.176;10.412;2024-02-26T15:41:01;13.90;77.20
7034;DHT22;3558;53.176;10.412;2024-02-26T15:43:27;14.00;77.30
7034;DHT22;3558;53.176;10.412;2024-02-26T15:45:52;14.00;77.30
7034;DHT22;3558;53.176;10.412;2024-02-26T15:48:18;13.90;77.20
7034;DHT22;3558;53.176;10.412;2024-02-26T15:50:43;13.90;77.20
7034;DHT22;3558;53.176;10.412;2024-02-26T15:53:09;13.90;77.20
7034;DHT22;3558;53.176;10.412;2024-02-26T15:55:34;13.90;77.20
7034;DHT22;3558;53.176;10.412;2024-02-26T15:58:00;13.90;77.20
7034;DHT22;3558;53.176;10.412;2024-02-26T16:00:25;13.90;77.30
7034;DHT22;3558;53.176;10.412;2024-02-26T16:02:52;13.80;77.30
7034;DHT22;3558;53.176;10.412;2024-02-26T16:05:17;13.80;77.40
7034;DHT22;3558;53.176;10.412;2024-02-26T16:07:53;13.80;77.50
7034;DHT22;3558;53.176;10.412;2024-02-26T16:10:21;13.80;77.60
7034;DHT22;3558;53.176;10.412;2024-02-26T16:12:49;13.80;77.80
7034;DHT22;3558;53.176;10.412;2024-02-26T16:15:15;13.70;77.70
7034;DHT22;3558;53.176;10.412;2024-02-26T16:17:43;13.70;77.80
7034;DHT22;3558;53.176;10.412;2024-02-26T16:20:16;13.70;77.90
7034;DHT22;3558;53.176;10.412;2024-02-26T16:22:44;13.70;78.00
7034;DHT22;3558;53.176;10.412;2024-02-26T16:25:09;13.60;77.90
7034;DHT22;3558;53.176;10.412;2024-02-26T16:27:35;13.60;77.90
7034;DHT22;3558;53.176;10.412;2024-02-26T16:30:04;13.60;78.00
7034;DHT22;3558;53.176;10.412;2024-02-26T16:32:33;13.60;78.00
7034;DHT22;3558;53.176;10.412;2024-02-26T16:35:00;13.60;78.10
7034;DHT22;3558;53.176;10.412;2024-02-26T16:37:26;13.60;78.10
7034;DHT22;3558;53.176;10.412;2024-02-26T16:39:52;13.60;78.20
7034;DHT22;3558;53.176;10.412;2024-02-26T16:42:18;13.50;78.20
7034;DHT22;3558;53.176;10.412;2024-02-26T16:44:44;13.50;78.40
7034;DHT22;3558;53.176;10.412;2024-02-26T16:47:10;13.50;78.40
7034;DHT22;3558;53.176;10.412;2024-02-26T16:49:35;13.40;78.90
7034;DHT22;3558;53.176;10.412;2024-02-26T16:52:01;13.40;78.40
7034;DHT22;3558;53.176;10.412;2024-02-26T16:54:28;13.40;78.40
7034;DHT22;3558;53.176;10.412;2024-02-26T16:56:53;13.40;78.50
7034;DHT22;3558;53.176;10.412;2024-02-26T16:59:19;13.40;78.50
7034;DHT22;3558;53.176;10.412;2024-02-26T17:01:45;13.30;78.50
7034;DHT22;3558;53.176;10.412;2024-02-26T17:04:11;13.30;78.50
7034;DHT22;3558;53.176;10.412;2024-02-26T17:06:37;13.30;78.60
7034;DHT22;3558;53.176;10.412;2024-02-26T17:09:02;13.20;78.60
7034;DHT22;3558;53.176;10.412;2024-02-26T17:11:33;13.20;78.60
7034;DHT22;3558;53.176;10.412;2024-02-26T17:13:59;13.20;78.40
7034;DHT22;3558;53.176;10.412;2024-02-26T17:16:25;13.20;78.40
7034;DHT22;3558;53.176;10.412;2024-02-26T17:18:50;13.20;78.60
7034;DHT22;3558;53.176;10.412;2024-02-26T17:21:17;13.10;78.50
7034;DHT22;3558;53.176;10.412;2024-02-26T17:23:42;13.10;78.60
7034;DHT22;3558;53.176;10.412;2024-02-26T17:26:08;13.10;78.70
7034;DHT22;3558;53.176;10.412;2024-02-26T17:28:36;13.00;78.60
7034;DHT22;3558;53.176;10.412;2024-02-26T17:31:05;13.00;78.50
7034;DHT22;3558;53.176;10.412;2024-02-26T17:33:31;13.00;78.60
7034;DHT22;3558;53.176;10.412;2024-02-26T17:35:56;13.00;78.60
7034;DHT22;3558;53.176;10.412;2024-02-26T17:38:22;12.90;78.50
7034;DHT22;3558;53.176;10.412;2024-02-26T17:40:48;12.90;78.40
7034;DHT22;3558;53.176;10.412;2024-02-26T17:43:20;12.90;78.50
7034;DHT22;3558;53.176;10.412;2024-02-26T17:45:46;12.80;78.60
7034;DHT22;3558;53.176;10.412;2024-02-26T17:48:12;12.80;78.60
7034;DHT22;3558;53.176;10.412;2024-02-26T17:50:38;12.80;78.60
7034;DHT22;3558;53.176;10.412;2024-02-26T17:53:03;12.80;78.60
7034;DHT22;3558;53.176;10.412;2024-02-26T17:55:29;12.70;78.60
7034;DHT22;3558;53.176;10.412;2024-02-26T17:57:55;12.70;78.70
7034;DHT22;3558;53.176;10.412;2024-02-26T18:00:20;12.70;78.60
7034;DHT22;3558;53.176;10.412;2024-02-26T18:02:48;12.80;78.50
7034;DHT22;3558;53.176;10.412;2024-02-26T18:05:13;12.70;78.50
7034;DHT22;3558;53.176;10.412;2024-02-26T18:07:40;12.70;78.50
7034;DHT22;3558;53.176;10.412;2024-02-26T18:10:06;12.70;78.40
7034;DHT22;3558;53.176;10.412;2024-02-26T18:12:35;12.70;78.50
7034;DHT22;3558;53.176;10.412;2024-02-26T18:15:02;12.60;78.40
7034;DHT22;3558;53.176;10.412;2024-02-26T18:17:36;12.60;78.40
7034;DHT22;3558;53.176;10.412;2024-02-26T18:20:05;12.60;78.30
7034;DHT22;3558;53.176;10.412;2024-02-26T18:22:32;12.60;78.30
7034;DHT22;3558;53.176;10.412;2024-02-26T18:24:58;12.60;78.30
7034;DHT22;3558;53.176;10.412;2024-02-26T18:27:23;12.50;78.00
7034;DHT22;3558;53.176;10.412;2024-02-26T18:29:49;12.50;78.00
7034;DHT22;3558;53.176;10.412;2024-02-26T18:32:14;12.60;78.10
7034;DHT22;3558;53.176;10.412;2024-02-26T18:34:41;12.60;78.10
7034;DHT22;3558;53.176;10.412;2024-02-26T18:37:07;12.50;78.60
7034;DHT22;3558;53.176;10.412;2024-02-26T18:39:32;12.50;78.10
7034;DHT22;3558;53.176;10.412;2024-02-26T18:41:58;12.40;78.00
7034;DHT22;3558;53.176;10.412;2024-02-26T18:44:24;12.40;78.00
7034;DHT22;3558;53.176;10.412;2024-02-26T18:46:49;12.40;78.00
7034;DHT22;3558;53.176;10.412;2024-02-26T18:49:15;12.40;77.80
7034;DHT22;3558;53.176;10.412;2024-02-26T18:51:41;12.40;77.80
7034;DHT22;3558;53.176;10.412;2024-02-26T18:54:07;12.40;77.90
7034;DHT22;3558;53.176;10.412;2024-02-26T18:56:33;12.30;77.70
7034;DHT22;3558;53.176;10.412;2024-02-26T18:59:00;12.30;77.70
7034;DHT22;3558;53.176;10.412;2024-02-26T19:01:25;12.30;77.70
7034;DHT22;3558;53.176;10.412;2024-02-26T19:03:51;12.30;77.70
7034;DHT22;3558;53.176;10.412;2024-02-26T19:06:16;12.30;77.60
7034;DHT22;3558;53.176;10.412;2024-02-26T19:08:41;12.30;77.50
7034;DHT22;3558;53.176;10.412;2024-02-26T19:11:07;12.20;77.40
7034;DHT22;3558;53.176;10.412;2024-02-26T19:13:34;12.30;77.50
7034;DHT22;3558;53.176;10.412;2024-02-26T19:16:00;12.30;77.50
7034;DHT22;3558;53.176;10.412;2024-02-26T19:18:26;12.20;77.30
7034;DHT22;3558;53.176;10.412;2024-02-26T19:20:51;12.20;77.40
7034;DHT22;3558;53.176;10.412;2024-02-26T19:23:17;12.20;77.30
7034;DHT22;3558;53.176;10.412;2024-02-26T19:25:42;12.20;77.30
7034;DHT22;3558;53.176;10.412;2024-02-26T19:28:08;12.10;77.20
7034;DHT22;3558;53.176;10.412;2024-02-26T19:30:34;12.10;77.20
7034;DHT22;3558;53.176;10.412;2024-02-26T19:32:59;12.10;77.00
7034;DHT22;3558;53.176;10.412;2024-02-26T19:35:25;12.10;77.00
7034;DHT22;3558;53.176;10.412;2024-02-26T19:37:51;12.10;76.90
7034;DHT22;3558;53.176;10.412;2024-02-26T19:40:16;12.00;76.90